Time;durP1;ratioP1;P1;durP2;ratioP2;P2;SDS_P1;SDS_P2;PMS_P1;PMS_P2;Temp;Humidity;BMP_temperature;BMP_pressure;BME280_temperature;BME280_humidity;BME280_pressure;Samples;Min_cycle;Max_cycle;Signal;HPM_P1;HPM_P2
2021/07/29 00:00:05;;;;;;;;;25.80;24.00;;;;;27.07;67.72;101001.25;5138713;27;8845;-76
2021/07/29 00:03:01;;;;;;;;;23.60;23.60;;;;;27.03;67.87;101000.50;5142841;27;8805;-76
2021/07/29 00:05:56;;;;;;;;;20.80;20.60;;;;;26.95;67.45;100993.34;5156789;27;8825;-75
2021/07/29 00:08:52;;;;;;;;;20.00;19.20;;;;;27.01;66.97;100989.56;5157058;27;8817;-75
2021/07/29 00:11:48;;;;;;;;;24.60;24.60;;;;;27.15;66.26;100983.63;5156624;27;8949;-76
2021/07/29 00:14:49;;;;;;;;;24.00;24.00;;;;;27.02;66.96;100985.50;5140781;27;8946;-75
2021/07/29 00:20:42;;;;;;;;;23.40;23.40;;;;;27.11;66.62;100993.44;5135845;27;8838;-75
2021/07/29 00:23:38;;;;;;;;;22.00;21.60;;;;;27.37;65.57;100977.47;5136624;27;8845;-75
2021/07/29 00:26:14;;;;;;;;;21.60;20.20;;;;;27.28;66.34;100982.94;5137178;27;8915;-75
2021/07/29 00:29:10;;;;;;;;;25.40;25.40;;;;;27.39;65.84;100978.66;5136740;27;8870;-75
2021/07/29 00:31:42;;;;;;;;;21.60;21.60;;;;;27.29;66.08;100978.88;5136776;27;8835;-75
2021/07/29 00:34:09;;;;;;;;;23.80;23.80;;;;;27.40;65.68;100987.97;5136367;27;8866;-75
2021/07/29 00:37:07;;;;;;;;;21.40;21.40;;;;;27.50;65.11;100986.09;5135402;27;8827;-75
2021/07/29 00:40:04;;;;;;;;;23.60;23.60;;;;;27.40;65.56;100983.06;5147360;27;8820;-75
2021/07/29 00:43:00;;;;;;;;;19.80;19.80;;;;;27.49;65.22;100988.16;5156990;27;8875;-75
2021/07/29 00:45:56;;;;;;;;;25.60;24.60;;;;;27.32;66.46;100978.81;5140379;27;8826;-75
2021/07/29 00:48:53;;;;;;;;;25.60;24.60;;;;;27.10;67.52;100980.50;5136272;27;9577;-75
2021/07/29 00:51:49;;;;;;;;;22.60;22.60;;;;;27.26;66.23;100985.44;5135185;27;8831;-75
2021/07/29 00:54:45;;;;;;;;;27.80;27.80;;;;;26.89;68.35;100974.00;5135257;27;8847;-75
2021/07/29 00:57:43;;;;;;;;;25.20;25.20;;;;;26.91;68.36;100979.22;5135145;27;8942;-75
2021/07/29 01:00:39;;;;;;;;;26.00;25.20;;;;;26.88;68.91;100986.59;5135162;27;8827;-75
2021/07/29 01:03:35;;;;;;;;;25.00;25.00;;;;;26.97;67.99;100991.66;5134774;27;8835;-75
2021/07/29 01:06:30;;;;;;;;;29.20;28.80;;;;;26.68;69.84;100987.78;5150945;27;8935;-75
2021/07/29 01:09:26;;;;;;;;;25.00;25.00;;;;;26.82;69.97;100984.69;5153688;27;8812;-76
2021/07/29 01:12:21;;;;;;;;;20.20;20.20;;;;;26.87;69.49;100979.31;5155298;27;8959;-75
2021/07/29 01:15:17;;;;;;;;;25.40;25.40;;;;;26.83;69.98;100977.78;5155302;27;8837;-75
2021/07/29 01:18:13;;;;;;;;;25.60;25.60;;;;;26.52;71.31;100980.78;5141604;27;8924;-75
2021/07/29 01:21:08;;;;;;;;;22.20;22.20;;;;;26.60;70.60;100985.09;5155349;27;8940;-76
2021/07/29 01:24:05;;;;;;;;;25.20;25.20;;;;;26.83;69.23;100983.44;5143733;27;8958;-75
2021/07/29 01:27:00;;;;;;;;;24.80;24.60;;;;;26.75;70.74;100982.00;5121144;27;8819;-76
2021/07/29 01:29:58;;;;;;;;;23.00;23.00;;;;;26.57;71.69;100971.78;5134670;27;8823;-75
2021/07/29 01:32:53;;;;;;;;;23.60;23.60;;;;;26.88;69.32;100980.91;5134513;27;8799;-76
2021/07/29 01:35:21;;;;;;;;;27.40;26.60;;;;;26.75;70.82;100979.94;5135357;27;8832;-75
2021/07/29 01:38:17;;;;;;;;;25.40;25.40;;;;;26.81;69.47;100985.94;5134472;27;8835;-75
2021/07/29 01:41:12;;;;;;;;;27.60;27.00;;;;;26.57;71.99;100988.00;5134084;27;8845;-75
2021/07/29 01:44:08;;;;;;;;;26.40;26.40;;;;;26.57;71.14;100977.47;5137939;27;8864;-76
2021/07/29 01:46:50;;;;;;;;;23.40;22.80;;;;;26.52;71.31;100977.16;5145025;27;8824;-75
2021/07/29 01:49:46;;;;;;;;;29.00;27.20;;;;;26.49;71.13;100975.19;5133958;27;8927;-76
2021/07/29 01:52:16;;;;;;;;;28.20;27.40;;;;;26.53;70.42;100984.44;5135144;27;8858;-75
2021/07/29 01:54:48;;;;;;;;;25.80;25.80;;;;;26.52;69.97;100985.66;5135113;27;8838;-76
2021/07/29 01:57:44;;;;;;;;;24.80;24.80;;;;;26.63;69.66;100983.44;5133790;27;8843;-76
2021/07/29 02:00:42;;;;;;;;;24.20;24.00;;;;;26.64;68.83;100987.06;5133942;27;9637;-76
2021/07/29 02:03:38;;;;;;;;;27.60;24.60;;;;;26.46;69.41;100993.09;5133809;27;9564;-76
2021/07/29 02:06:37;;;;;;;;;25.80;25.00;;;;;26.36;68.03;100994.03;5133760;27;8903;-75
2021/07/29 02:09:33;;;;;;;;;20.80;20.20;;;;;26.31;68.70;100993.31;5133724;27;8883;-76
2021/07/29 02:12:28;;;;;;;;;24.80;24.80;;;;;26.21;69.47;100988.63;5145764;27;8809;-75
2021/07/29 02:15:25;;;;;;;;;22.80;22.80;;;;;26.28;68.48;100985.66;5154064;27;9637;-75
2021/07/29 02:18:20;;;;;;;;;22.60;22.60;;;;;26.16;67.68;100986.28;5153994;27;8825;-75
2021/07/29 02:21:16;;;;;;;;;22.20;21.40;;;;;26.09;68.30;100980.75;5153989;27;8829;-75
2021/07/29 02:24:12;;;;;;;;;24.60;23.40;;;;;26.25;67.46;100989.38;5153754;27;8821;-75
2021/07/29 02:26:54;;;;;;;;;25.00;25.00;;;;;26.29;67.78;100992.91;5138489;27;8842;-75
2021/07/29 02:29:50;;;;;;;;;22.00;22.00;;;;;26.11;67.66;100983.94;5134139;27;8847;-75
2021/07/29 02:32:47;;;;;;;;;20.20;20.20;;;;;26.23;67.41;100977.66;5133252;27;8819;-75
2021/07/29 02:35:50;;;;;;;;;24.20;24.20;;;;;25.99;67.89;100984.53;5134334;27;8866;-76
2021/07/29 02:38:18;;;;;;;;;21.40;21.40;;;;;26.20;67.28;100980.53;5116676;27;8835;-75
2021/07/29 02:41:14;;;;;;;;;21.40;21.40;;;;;26.23;67.30;100991.03;5133149;27;8838;-74
2021/07/29 02:44:10;;;;;;;;;19.00;19.00;;;;;26.23;67.38;100979.69;5133093;27;8862;-76
2021/07/29 02:47:05;;;;;;;;;21.60;21.60;;;;;26.42;66.94;100986.69;5119335;27;8823;-75
2021/07/29 02:50:01;;;;;;;;;23.60;22.40;;;;;26.29;66.95;100981.59;5132970;27;8823;-75
2021/07/29 02:52:28;;;;;;;;;20.20;20.00;;;;;26.11;68.26;100991.63;5133888;27;9615;-74
2021/07/29 02:55:24;;;;;;;;;20.40;20.40;;;;;26.18;67.70;100995.16;5135685;27;8826;-74
2021/07/29 02:58:05;;;;;;;;;17.80;17.80;;;;;25.93;69.25;101001.25;5132627;27;8882;-75
2021/07/29 03:01:01;;;;;;;;;22.40;21.80;;;;;26.15;68.18;100990.38;5132887;27;8854;-75
2021/07/29 03:03:56;;;;;;;;;20.80;20.40;;;;;26.14;68.03;101000.06;5134606;27;8868;-75
2021/07/29 03:06:53;;;;;;;;;17.20;17.20;;;;;26.12;68.52;100994.03;5133161;27;8972;-75
2021/07/29 03:09:48;;;;;;;;;18.60;18.60;;;;;25.98;69.58;100997.91;5134087;27;8838;-75
2021/07/29 03:12:44;;;;;;;;;18.80;18.80;;;;;25.76;70.39;101000.31;5132482;27;8846;-74
2021/07/29 03:15:40;;;;;;;;;18.80;18.80;;;;;25.86;70.35;101003.38;5132881;27;8839;-76
2021/07/29 03:18:35;;;;;;;;;18.60;18.60;;;;;26.05;69.74;100997.78;5151545;27;8833;-74
2021/07/29 03:21:31;;;;;;;;;19.00;19.00;;;;;26.19;69.30;101002.44;5153356;27;8813;-75
2021/07/29 03:24:26;;;;;;;;;15.00;15.00;;;;;25.95;70.58;100998.78;5153548;27;8829;-75
2021/07/29 03:27:22;;;;;;;;;17.60;17.60;;;;;25.94;70.49;101005.69;5153550;27;8913;-75
2021/07/29 03:30:18;;;;;;;;;8.60;8.60;;;;;26.25;69.17;101003.53;5153471;27;9621;-74
2021/07/29 03:33:13;;;;;;;;;14.60;13.80;;;;;25.93;71.79;101014.63;5153482;27;8914;-74
2021/07/29 03:35:41;;;;;;;;;17.60;17.60;;;;;25.96;71.41;101016.56;5137689;27;8859;-74
2021/07/29 03:38:22;;;;;;;;;19.00;19.00;;;;;26.10;71.29;101018.38;5158326;27;8918;-74
2021/07/29 03:41:18;;;;;;;;;16.40;16.40;;;;;26.24;70.51;101015.31;5152417;27;8828;-76
2021/07/29 03:44:13;;;;;;;;;16.20;16.20;;;;;26.29;70.80;101000.63;5157301;27;8848;-76
2021/07/29 03:47:09;;;;;;;;;14.20;14.20;;;;;26.34;70.61;101005.81;5157232;27;8855;-75
2021/07/29 03:50:05;;;;;;;;;15.00;15.00;;;;;26.03;72.38;101013.63;5156938;27;9579;-77
2021/07/29 03:53:01;;;;;;;;;15.60;15.60;;;;;25.83;73.49;101004.22;5140780;27;8823;-76
2021/07/29 03:55:57;;;;;;;;;16.00;16.00;;;;;26.15;72.46;101013.03;5135711;27;8843;-76
2021/07/29 03:58:52;;;;;;;;;13.80;13.80;;;;;25.99;73.11;101010.88;5122920;27;8934;-76
2021/07/29 04:01:48;;;;;;;;;15.60;15.60;;;;;25.90;73.12;101002.09;5136815;27;8831;-77
2021/07/29 04:04:44;;;;;;;;;20.20;18.00;;;;;26.18;72.49;101002.84;5138935;27;8831;-76
2021/07/29 04:07:26;;;;;;;;;13.20;12.60;;;;;26.36;72.00;101005.38;5144361;27;8869;-74
2021/07/29 04:10:04;;;;;;;;;15.60;15.60;;;;;26.42;71.94;100992.34;5144324;27;8844;-75
2021/07/29 04:12:59;;;;;;;;;16.80;16.20;;;;;26.54;70.91;101001.03;5142995;27;8856;-74
2021/07/29 04:15:27;;;;;;;;;14.20;14.20;;;;;26.46;72.28;100995.94;5143788;27;9556;-75
2021/07/29 04:18:23;;;;;;;;;14.20;14.20;;;;;26.48;72.10;100982.13;5143434;27;8821;-74
2021/07/29 04:21:19;;;;;;;;;16.00;16.00;;;;;26.65;71.00;100988.69;5144273;27;8819;-75
2021/07/29 04:24:17;;;;;;;;;16.80;16.80;;;;;26.83;70.18;100986.28;5146577;27;8851;-74
2021/07/29 04:26:45;;;;;;;;;13.20;13.20;;;;;26.89;70.48;100982.50;5146190;27;8861;-74
2021/07/29 04:29:41;;;;;;;;;17.40;17.40;;;;;26.81;71.07;100975.38;5146459;27;8837;-75
2021/07/29 04:32:37;;;;;;;;;17.00;17.00;;;;;26.89;71.18;100978.88;5145409;27;8828;-74
2021/07/29 04:35:32;;;;;;;;;17.20;16.40;;;;;27.00;70.93;100982.31;5143041;27;8827;-75
2021/07/29 04:38:28;;;;;;;;;15.20;15.20;;;;;26.58;72.97;100981.91;5140852;27;8839;-75
2021/07/29 04:41:23;;;;;;;;;14.80;14.80;;;;;26.71;72.70;100984.91;5144074;27;8941;-78
2021/07/29 04:44:19;;;;;;;;;11.60;11.60;;;;;26.27;74.73;100986.91;5141267;27;8803;-75
2021/07/29 04:46:47;;;;;;;;;14.00;14.00;;;;;26.37;74.00;100990.75;5147103;27;8850;-75
2021/07/29 04:49:43;;;;;;;;;13.20;13.20;;;;;26.50;74.31;100986.09;5145249;27;8901;-77
2021/07/29 04:52:38;;;;;;;;;17.80;17.80;;;;;26.72;73.57;100972.31;5145746;27;9630;-75
2021/07/29 04:55:34;;;;;;;;;17.00;17.00;;;;;26.74;72.91;100977.56;5146572;27;8832;-76
2021/07/29 04:58:32;;;;;;;;;15.20;15.00;;;;;26.82;73.16;100984.69;5143601;27;8823;-75
2021/07/29 05:01:28;;;;;;;;;16.40;16.40;;;;;27.09;71.79;100993.91;5142214;27;8947;-76
2021/07/29 05:04:24;;;;;;;;;18.40;18.40;;;;;26.75;72.79;100988.47;5145121;27;8845;-75
2021/07/29 05:07:19;;;;;;;;;16.20;16.20;;;;;27.02;72.02;100993.22;5126970;27;8823;-75
2021/07/29 05:09:48;;;;;;;;;16.00;16.00;;;;;26.91;72.89;100982.06;5144254;27;8835;-76
2021/07/29 05:12:46;;;;;;;;;16.00;16.00;;;;;26.69;73.78;100990.22;5142202;27;8835;-75
2021/07/29 05:15:42;;;;;;;;;16.80;16.80;;;;;26.77;73.64;100986.00;5143215;27;8827;-75
2021/07/29 05:18:38;;;;;;;;;22.00;22.00;;;;;26.96;72.87;100980.75;5134898;27;8833;-75
2021/07/29 05:21:34;;;;;;;;;22.20;22.20;;;;;26.98;73.04;100975.44;5139721;27;8920;-75
2021/07/29 05:24:18;;;;;;;;;19.00;19.00;;;;;27.03;72.79;100972.91;5146470;27;8877;-75
2021/07/29 05:27:14;;;;;;;;;19.20;19.20;;;;;27.30;71.78;100974.81;5143968;27;8823;-75
2021/07/29 05:30:09;;;;;;;;;22.80;22.80;;;;;27.38;70.91;100973.41;5146488;27;8847;-75
2021/07/29 05:33:05;;;;;;;;;23.20;21.60;;;;;27.46;70.54;100968.38;5141831;27;8873;-74
2021/07/29 05:35:33;;;;;;;;;16.60;16.60;;;;;27.62;70.52;100963.50;5143241;27;9626;-74
2021/07/29 05:38:30;;;;;;;;;19.20;19.20;;;;;27.73;70.02;100968.16;5144190;27;8846;-74
2021/07/29 05:41:25;;;;;;;;;19.20;19.20;;;;;27.85;69.92;100967.47;5142920;27;8843;-74
2021/07/29 05:44:21;;;;;;;;;21.40;21.40;;;;;28.02;69.02;100965.41;5142494;27;8839;-74
2021/07/29 05:47:17;;;;;;;;;21.80;21.80;;;;;28.00;69.65;100965.88;5137032;27;8860;-75
2021/07/29 05:50:13;;;;;;;;;22.80;22.80;;;;;28.21;68.54;100962.44;5141291;27;8843;-75
2021/07/29 05:53:08;;;;;;;;;17.00;17.00;;;;;27.91;70.49;100966.50;5140727;27;10492;-74
2021/07/29 05:56:04;;;;;;;;;22.40;22.40;;;;;27.99;69.86;100967.13;5133392;27;8891;-75
2021/07/29 05:59:00;;;;;;;;;18.80;18.80;;;;;28.09;69.55;100973.75;5154272;27;8817;-74
2021/07/29 06:01:55;;;;;;;;;51.80;37.80;;;;;28.07;70.58;100985.59;5155730;27;8884;-75
2021/07/29 06:04:51;;;;;;;;;21.40;20.20;;;;;27.87;71.12;100971.44;5151144;27;8817;-74
2021/07/29 06:07:19;;;;;;;;;19.00;19.00;;;;;27.94;70.82;100970.47;5135474;27;8823;-74
2021/07/29 06:10:14;;;;;;;;;17.40;17.40;;;;;28.37;70.22;100973.06;5119929;27;8854;-75
2021/07/29 06:13:10;;;;;;;;;20.40;20.40;;;;;28.46;69.23;100981.75;5133562;27;8843;-75
2021/07/29 06:16:09;;;;;;;;;19.60;19.60;;;;;28.49;69.09;100972.31;5133933;27;8855;-75
2021/07/29 06:19:07;;;;;;;;;19.40;19.40;;;;;28.19;71.29;100970.63;5133420;27;8823;-76
2021/07/29 06:22:03;;;;;;;;;21.40;20.60;;;;;28.39;70.57;100975.44;5133522;27;8839;-75
2021/07/29 06:24:59;;;;;;;;;20.60;20.60;;;;;28.26;70.46;100964.75;5133748;27;8841;-75
2021/07/29 06:27:55;;;;;;;;;19.60;19.60;;;;;28.63;69.81;100979.66;5132202;27;8855;-75
2021/07/29 06:30:50;;;;;;;;;16.80;16.80;;;;;28.79;68.93;100971.06;5136932;27;8815;-74
2021/07/29 06:33:46;;;;;;;;;20.00;20.00;;;;;28.87;68.61;100973.72;5153088;27;8837;-74
2021/07/29 06:36:42;;;;;;;;;20.40;20.40;;;;;29.15;68.46;100970.06;5153879;27;8848;-74
2021/07/29 06:39:10;;;;;;;;;18.40;18.40;;;;;29.16;68.42;100974.50;5154685;27;8869;-75
2021/07/29 06:42:05;;;;;;;;;19.20;19.20;;;;;29.36;67.94;100971.44;5148207;27;8854;-73
2021/07/29 06:45:01;;;;;;;;;24.40;24.40;;;;;29.55;67.04;100964.78;5152863;27;8813;-76
2021/07/29 06:47:57;;;;;;;;;20.80;20.60;;;;;29.59;66.86;100971.13;5153662;27;8837;-76
2021/07/29 06:50:53;;;;;;;;;18.40;18.40;;;;;29.53;67.34;100963.66;5153715;27;9598;-75
2021/07/29 06:53:49;;;;;;;;;18.60;18.60;;;;;29.46;67.49;100958.94;5153605;27;8941;-75
2021/07/29 06:56:45;;;;;;;;;19.40;18.40;;;;;29.73;66.40;100955.63;5153849;27;8913;-76
2021/07/29 06:59:41;;;;;;;;;18.80;18.80;;;;;29.89;66.22;100957.56;5153731;27;8833;-76
2021/07/29 07:02:36;;;;;;;;;20.60;20.60;;;;;30.05;65.80;100948.84;5153614;27;8821;-75
2021/07/29 07:05:04;;;;;;;;;18.60;18.60;;;;;29.97;66.22;100947.50;5154882;27;8883;-76
2021/07/29 07:07:31;;;;;;;;;23.00;22.60;;;;;30.38;64.75;100945.75;5154830;27;8821;-75
2021/07/29 07:10:00;;;;;;;;;22.60;21.80;;;;;30.31;65.15;100943.94;5157462;27;8839;-75
2021/07/29 07:12:48;;;;;;;;;21.20;21.20;;;;;30.52;63.61;100942.38;5162279;27;8841;-75
2021/07/29 07:15:16;;;;;;;;;23.60;23.40;;;;;30.76;63.41;100939.88;5165654;27;8949;-74
2021/07/29 07:17:43;;;;;;;;;22.20;22.20;;;;;30.86;62.28;100935.03;5165870;27;8833;-76
2021/07/29 07:20:12;;;;;;;;;21.60;21.60;;;;;30.91;62.93;100925.88;5142118;27;8849;-76
2021/07/29 07:22:40;;;;;;;;;22.00;22.00;;;;;30.76;63.35;100933.38;5123922;27;8956;-76
2021/07/29 07:25:09;;;;;;;;;20.80;20.80;;;;;30.60;62.65;100932.28;5140163;27;8837;-76
2021/07/29 07:27:38;;;;;;;;;21.00;20.00;;;;;30.73;62.44;100924.47;5123831;27;8840;-75
2021/07/29 07:30:06;;;;;;;;;23.80;23.80;;;;;30.83;63.15;100930.25;5139990;27;8883;-75
2021/07/29 07:32:34;;;;;;;;;21.40;20.60;;;;;31.18;61.78;100934.59;5158039;27;8856;-75
2021/07/29 07:35:04;;;;;;;;;20.00;19.80;;;;;31.23;61.38;100928.31;5139973;27;8829;-77
2021/07/29 07:37:46;;;;;;;;;23.00;23.00;;;;;31.22;62.04;100937.34;5140061;27;8861;-78
2021/07/29 07:40:16;;;;;;;;;21.60;21.60;;;;;31.22;60.73;100923.06;5140119;27;8857;-76
2021/07/29 07:42:45;;;;;;;;;11.60;11.60;;;;;31.31;63.00;100925.16;5158565;27;8833;-77
2021/07/29 07:45:12;;;;;;;;;24.20;24.20;;;;;31.30;62.45;100932.16;5158359;27;8876;-76
2021/07/29 07:47:40;;;;;;;;;26.20;26.20;;;;;31.05;63.43;100928.16;5158317;27;8844;-77
2021/07/29 07:50:08;;;;;;;;;28.00;28.00;;;;;31.00;63.00;100928.78;5158252;27;8955;-77
2021/07/29 07:52:36;;;;;;;;;30.20;28.80;;;;;31.25;63.21;100927.81;5158073;27;8860;-77
2021/07/29 07:55:04;;;;;;;;;24.00;24.00;;;;;31.30;62.45;100929.28;5139864;27;8841;-77
2021/07/29 07:57:32;;;;;;;;;25.20;25.20;;;;;31.43;61.74;100922.19;5158354;27;8852;-77
2021/07/29 08:00:00;;;;;;;;;26.20;26.20;;;;;31.19;62.46;100924.75;5139741;27;8836;-75
2021/07/29 08:02:27;;;;;;;;;25.40;25.40;;;;;31.51;61.35;100923.50;5158101;27;9048;-75
2021/07/29 08:04:56;;;;;;;;;22.40;22.40;;;;;31.55;60.97;100940.50;5139776;27;8865;-76
2021/07/29 08:07:24;;;;;;;;;20.40;20.40;;;;;31.64;60.92;100929.09;5157838;27;8871;-74
2021/07/29 08:10:20;;;;;;;;;24.80;24.80;;;;;31.78;59.83;100934.25;5141121;27;8825;-75
2021/07/29 08:13:16;;;;;;;;;22.80;22.00;;;;;32.01;59.69;100932.09;5144795;27;8821;-75
2021/07/29 08:16:13;;;;;;;;;20.00;19.80;;;;;31.92;59.98;100932.88;5146166;27;8878;-74
2021/07/29 08:18:46;;;;;;;;;24.20;22.80;;;;;32.13;59.24;100922.59;5146877;27;8921;-74
2021/07/29 08:21:17;;;;;;;;;24.20;24.20;;;;;32.33;58.21;100925.78;5146361;27;8931;-74
2021/07/29 08:23:59;;;;;;;;;20.60;20.60;;;;;31.92;58.91;100924.28;5142387;27;8941;-74
2021/07/29 08:26:57;;;;;;;;;24.40;24.40;;;;;32.13;57.83;100924.63;5147984;27;8916;-74
2021/07/29 08:29:24;;;;;;;;;21.60;21.20;;;;;32.35;56.35;100928.16;5145850;27;8851;-74
2021/07/29 08:31:55;;;;;;;;;24.20;24.20;;;;;32.56;55.76;100920.69;5146464;27;8846;-75
2021/07/29 08:34:37;;;;;;;;;24.00;22.40;;;;;32.16;56.36;100915.91;5140508;27;8887;-73
2021/07/29 08:37:13;;;;;;;;;25.00;25.00;;;;;32.32;55.33;100924.19;5146661;27;8867;-75
2021/07/29 08:40:10;;;;;;;;;23.60;23.60;;;;;32.52;54.75;100908.63;5142192;27;8948;-74
2021/07/29 08:42:42;;;;;;;;;21.40;21.40;;;;;32.53;55.25;100913.88;5145907;27;8851;-74
2021/07/29 08:45:10;;;;;;;;;21.40;21.40;;;;;32.86;53.90;100913.22;5144584;27;8832;-74
2021/07/29 08:47:57;;;;;;;;;23.60;23.20;;;;;32.87;53.95;100918.44;5143340;27;8835;-74
2021/07/29 08:50:25;;;;;;;;;21.80;21.80;;;;;32.82;53.62;100919.09;5126980;27;8825;-74
2021/07/29 08:52:53;;;;;;;;;24.40;24.40;;;;;33.16;53.42;100917.91;5146388;27;8835;-74
2021/07/29 08:55:53;;;;;;;;;26.00;25.20;;;;;33.18;54.08;100914.56;5145730;27;8889;-74
2021/07/29 08:58:52;;;;;;;;;27.20;27.20;;;;;33.47;52.58;100914.78;5134580;27;9056;-75
2021/07/29 09:01:20;;;;;;;;;30.40;29.40;;;;;33.69;51.71;100907.97;5146007;27;9561;-75
2021/07/29 09:04:16;;;;;;;;;27.40;27.40;;;;;33.64;51.26;100903.69;5144122;27;8844;-73
2021/07/29 09:07:11;;;;;;;;;32.60;31.00;;;;;33.73;51.04;100897.13;5136272;27;8824;-74
2021/07/29 09:10:00;;;;;;;;;32.40;30.80;;;;;34.01;50.14;100895.69;5131031;27;8873;-73
2021/07/29 09:12:29;;;;;;;;;36.60;33.80;;;;;33.72;50.92;100902.06;5138984;27;8863;-65
2021/07/29 09:14:56;;;;;;;;;36.40;33.60;;;;;33.75;50.90;100903.19;5152984;27;8885;-65
2021/07/29 09:17:53;;;;;;;;;36.40;32.20;;;;;33.51;50.71;100894.56;5135926;27;8843;-65
2021/07/29 09:20:21;;;;;;;;;23.60;23.60;;;;;33.54;50.95;100905.03;5135924;27;8937;-64
2021/07/29 09:22:51;;;;;;;;;31.00;29.40;;;;;33.69;50.13;100900.19;5138104;27;8862;-74
2021/07/29 09:25:24;;;;;;;;;31.40;30.20;;;;;34.01;50.34;100903.50;5150972;27;8833;-74
2021/07/29 09:27:53;;;;;;;;;31.00;29.20;;;;;34.32;48.97;100893.69;5130738;27;8833;-74
2021/07/29 09:30:21;;;;;;;;;31.60;30.60;;;;;34.46;47.84;100890.09;5154497;27;8833;-74
2021/07/29 09:32:59;;;;;;;;;27.60;27.60;;;;;34.53;48.20;100886.84;5142095;27;8839;-74
2021/07/29 09:35:54;;;;;;;;;29.20;28.60;;;;;34.54;48.89;100882.69;5134821;27;8847;-74
2021/07/29 09:38:50;;;;;;;;;23.80;23.80;;;;;34.49;48.24;100891.97;5134356;27;8831;-75
2021/07/29 09:41:34;;;;;;;;;22.80;22.80;;;;;34.36;48.31;100877.88;5141098;27;8853;-73
2021/07/29 09:44:06;;;;;;;;;29.20;28.60;;;;;34.74;47.55;100870.53;5140727;27;8854;-75
2021/07/29 09:46:36;;;;;;;;;19.40;19.40;;;;;34.79;47.06;100869.81;5149227;27;8841;-75
2021/07/29 09:49:03;;;;;;;;;20.80;20.80;;;;;35.08;46.75;100864.06;5155288;27;8868;-75
2021/07/29 09:52:01;;;;;;;;;19.80;19.80;;;;;34.74;46.44;100862.69;5140125;27;8836;-75
2021/07/29 09:55:02;;;;;;;;;20.60;20.60;;;;;34.95;46.91;100868.53;5124306;27;8945;-75
2021/07/29 09:58:01;;;;;;;;;20.00;20.00;;;;;34.49;47.54;100872.66;5119757;27;8837;-75
2021/07/29 10:00:57;;;;;;;;;21.40;21.40;;;;;34.90;46.42;100867.19;5133590;27;8977;-75
2021/07/29 10:03:54;;;;;;;;;22.40;22.40;;;;;35.05;46.29;100867.97;5142896;27;8862;-76
2021/07/29 10:06:28;;;;;;;;;22.60;22.60;;;;;35.05;45.10;100856.47;5118872;27;8929;-74
2021/07/29 10:08:59;;;;;;;;;19.80;19.80;;;;;35.45;44.58;100852.13;5099748;27;8851;-74
2021/07/29 10:11:50;;;;;;;;;18.40;18.40;;;;;35.14;45.72;100849.00;5134519;27;9707;-74
2021/07/29 10:14:48;;;;;;;;;18.00;18.00;;;;;35.10;44.85;100852.06;5133608;27;8835;-74
2021/07/29 10:17:46;;;;;;;;;17.20;17.20;;;;;35.08;45.88;100857.53;5133355;27;8908;-74
2021/07/29 10:20:42;;;;;;;;;16.40;16.40;;;;;35.17;44.32;100848.00;5119716;27;9575;-74
2021/07/29 10:23:51;;;;;;;;;15.80;15.80;;;;;35.24;44.09;100834.00;5119535;27;9654;-76
2021/07/29 10:26:49;;;;;;;;;17.60;16.60;;;;;35.44;43.94;100830.44;5133424;27;8869;-75
2021/07/29 10:29:46;;;;;;;;;15.00;15.00;;;;;35.63;42.55;100830.94;5134278;27;8827;-75
2021/07/29 10:32:49;;;;;;;;;13.40;13.40;;;;;35.77;42.57;100820.66;5143257;27;8821;-74
2021/07/29 10:35:45;;;;;;;;;14.00;14.00;;;;;35.93;42.44;100822.97;5139035;27;8839;-74
2021/07/29 10:38:42;;;;;;;;;13.00;13.00;;;;;36.11;40.91;100807.47;5133733;27;8823;-75
2021/07/29 10:41:42;;;;;;;;;15.20;15.20;;;;;36.34;40.41;100805.63;5123983;27;8827;-74
2021/07/29 10:44:38;;;;;;;;;13.20;13.20;;;;;36.50;39.84;100795.59;5139924;27;8835;-75
2021/07/29 10:47:41;;;;;;;;;13.00;13.00;;;;;36.26;40.08;100790.88;5119255;27;8840;-73
2021/07/29 10:51:11;;;;;;;;;12.80;12.80;;;;;36.45;39.86;100792.16;5130397;27;8903;-75
2021/07/29 10:54:06;;;;;;;;;14.40;14.40;;;;;36.69;39.97;100791.84;5133787;27;9005;-74
2021/07/29 10:57:18;;;;;;;;;18.40;18.40;;;;;36.77;40.10;100794.28;5153763;27;9007;-73
2021/07/29 11:00:14;;;;;;;;;12.40;12.40;;;;;36.59;39.92;100787.59;5153725;27;8994;-74
2021/07/29 11:03:19;;;;;;;;;19.00;19.00;;;;;36.70;39.40;100776.13;5154019;27;8965;-74
2021/07/29 11:06:36;;;;;;;;;16.20;16.20;;;;;36.80;39.75;100767.31;5152948;27;8963;-74
2021/07/29 11:09:33;;;;;;;;;13.20;13.20;;;;;36.96;38.39;100755.94;5135194;27;8832;-76
2021/07/29 11:12:30;;;;;;;;;19.60;16.40;;;;;37.17;38.94;100747.94;5142711;27;8833;-75
2021/07/29 11:15:27;;;;;;;;;15.20;14.80;;;;;37.10;38.56;100736.09;5148351;27;8838;-74
2021/07/29 11:18:23;;;;;;;;;14.80;14.40;;;;;37.19;37.82;100728.03;5150295;27;8831;-76
2021/07/29 11:21:18;;;;;;;;;13.60;13.60;;;;;37.14;38.69;100740.31;5128335;27;8855;-76
2021/07/29 11:24:03;;;;;;;;;15.00;15.00;;;;;36.72;39.40;100721.66;5154176;27;8859;-76
2021/07/29 11:27:17;;;;;;;;;15.80;15.80;;;;;36.81;38.82;100725.66;5153027;27;8837;-75
2021/07/29 11:29:55;;;;;;;;;12.20;12.20;;;;;37.00;39.18;100730.53;5143837;27;8817;-75
2021/07/29 11:32:39;;;;;;;;;13.80;13.80;;;;;36.88;38.97;100728.09;5153600;27;9538;-76
2021/07/29 11:35:35;;;;;;;;;14.60;14.60;;;;;36.07;39.98;100721.38;5132328;27;8846;-75
2021/07/29 11:38:30;;;;;;;;;12.20;12.20;;;;;35.76;40.74;100707.69;5144720;27;8828;-76
2021/07/29 11:41:00;;;;;;;;;15.40;15.40;;;;;36.06;39.86;100693.09;5146662;27;8917;-75
2021/07/29 11:43:31;;;;;;;;;11.40;11.40;;;;;35.93;40.35;100691.41;5134101;27;8827;-75
2021/07/29 11:46:26;;;;;;;;;14.20;14.20;;;;;35.19;41.33;100691.00;5132555;27;8871;-77
2021/07/29 11:49:23;;;;;;;;;14.20;14.20;;;;;34.88;42.58;100687.91;5134077;27;8861;-77
2021/07/29 11:52:21;;;;;;;;;13.20;13.20;;;;;34.78;42.77;100684.41;5135317;27;8839;-78
2021/07/29 11:55:10;;;;;;;;;16.20;16.00;;;;;34.38;43.71;100685.06;5149529;27;8900;-76
2021/07/29 11:57:44;;;;;;;;;12.80;12.80;;;;;34.09;45.33;100691.59;5152547;27;8854;-77
2021/07/29 12:00:41;;;;;;;;;16.00;16.00;;;;;33.88;46.50;100688.56;5136139;27;8850;-76
2021/07/29 12:03:43;;;;;;;;;12.20;12.20;;;;;33.52;47.35;100686.84;5136474;27;8883;-74
2021/07/29 12:06:33;;;;;;;;;12.00;12.00;;;;;33.23;47.39;100678.13;5137222;27;8850;-75
2021/07/29 12:09:33;;;;;;;;;13.40;13.40;;;;;33.09;46.58;100689.03;5137931;27;8823;-75
2021/07/29 12:12:30;;;;;;;;;10.00;10.00;;;;;32.36;45.78;100687.31;5156506;27;8909;-75
2021/07/29 12:15:26;;;;;;;;;11.00;11.00;;;;;32.20;46.50;100679.06;5144788;27;8860;-75
2021/07/29 12:18:22;;;;;;;;;10.20;10.20;;;;;31.84;43.89;100654.22;5134699;27;8966;-75
2021/07/29 12:21:32;;;;;;;;;11.00;10.20;;;;;31.80;44.47;100642.94;5134048;27;8866;-74
2021/07/29 12:24:44;;;;;;;;;7.80;7.80;;;;;31.94;44.22;100647.19;5135119;27;8827;-74
2021/07/29 12:27:45;;;;;;;;;7.20;7.20;;;;;31.66;44.33;100686.44;5136301;27;8831;-74
2021/07/29 12:30:42;;;;;;;;;7.00;7.00;;;;;31.74;44.28;100699.13;5135164;27;8870;-74
2021/07/29 12:33:51;;;;;;;;;7.40;7.40;;;;;31.46;45.97;100706.94;5149491;27;8955;-75
2021/07/29 12:36:48;;;;;;;;;10.80;10.80;;;;;31.50;46.93;100733.28;5154762;27;8868;-76
2021/07/29 12:39:33;;;;;;;;;9.40;9.40;;;;;31.64;47.35;100740.44;5148215;27;8847;-75
2021/07/29 12:42:31;;;;;;;;;8.20;7.60;;;;;31.33;47.40;100752.00;5155854;27;8805;-76
2021/07/29 12:45:46;;;;;;;;;8.00;8.00;;;;;31.20;47.71;100763.50;5154015;27;8849;-75
2021/07/29 12:49:00;;;;;;;;;9.40;9.40;;;;;30.92;47.35;100747.56;5135863;27;8842;-76
2021/07/29 12:51:36;;;;;;;;;6.80;6.80;;;;;30.64;48.27;100750.28;5136088;27;8831;-76
2021/07/29 12:55:00;;;;;;;;;9.00;9.00;;;;;30.57;49.13;100761.97;5142719;27;8839;-75
2021/07/29 12:57:28;;;;;;;;;5.60;5.60;;;;;30.43;48.00;100773.94;5145197;27;9019;-76
2021/07/29 13:00:24;;;;;;;;;9.00;9.00;;;;;30.48;47.38;100801.09;5125874;27;8831;-75